createdAt,value
2018-09-15T00:00:23.145Z,9.63
2018-09-15T00:00:57.774Z,6.33
2018-09-15T00:01:31.850Z,6.87
2018-09-15T00:02:05.705Z,7.97
2018-09-15T00:02:39.863Z,7.47
2018-09-15T00:03:13.717Z,6.90
2018-09-15T00:03:47.680Z,8.03
2018-09-15T00:04:21.559Z,5.03
2018-09-15T00:04:55.580Z,9.93
2018-09-15T00:05:30.038Z,7.27
2018-09-15T00:06:04.031Z,6.90
2018-09-15T00:06:37.917Z,6.83
2018-09-15T00:07:11.898Z,7.00
2018-09-15T00:07:45.999Z,8.13
2018-09-15T00:08:19.899Z,6.43
2018-09-15T00:08:54.616Z,6.43
2018-09-15T00:09:28.611Z,11.57
2018-09-15T00:10:02.453Z,4.30
2018-09-15T00:10:36.633Z,9.63
2018-09-15T00:11:10.227Z,6.07
2018-09-15T00:11:44.056Z,4.40
2018-09-15T00:12:17.878Z,8.20
2018-09-15T00:12:51.821Z,5.67
2018-09-15T00:13:25.653Z,6.53
2018-09-15T00:13:59.402Z,6.03
2018-09-15T00:14:33.179Z,5.70
2018-09-15T00:15:08.093Z,8.00
2018-09-15T00:15:41.962Z,4.70
2018-09-15T00:16:15.782Z,4.47
2018-09-15T00:16:49.609Z,9.07
2018-09-15T00:17:23.653Z,6.60
2018-09-15T00:17:58.971Z,8.00
2018-09-15T00:18:32.753Z,7.70
2018-09-15T00:19:06.648Z,4.57
2018-09-15T00:19:40.565Z,6.23
2018-09-15T00:20:14.583Z,7.97
2018-09-15T00:20:48.434Z,5.77
2018-09-15T00:21:22.270Z,5.10
2018-09-15T00:21:56.337Z,4.53
2018-09-15T00:22:30.140Z,6.90
2018-09-15T00:23:04.019Z,7.67
2018-09-15T00:23:38.098Z,5.20
2018-09-15T00:24:11.990Z,6.77
2018-09-15T00:24:45.934Z,8.67
2018-09-15T00:25:19.675Z,7.50
2018-09-15T00:25:53.781Z,7.53
2018-09-15T00:26:27.579Z,6.33
2018-09-15T00:27:01.626Z,5.00
2018-09-15T00:27:36.420Z,6.53
2018-09-15T00:28:11.251Z,5.03
2018-09-15T00:28:45.231Z,6.37
2018-09-15T00:29:19.147Z,5.00
2018-09-15T00:29:52.939Z,6.77
2018-09-15T00:30:26.806Z,7.07
2018-09-15T00:31:00.704Z,6.17
2018-09-15T00:31:34.606Z,7.30
2018-09-15T00:32:08.366Z,5.73
2018-09-15T00:32:42.283Z,7.43
2018-09-15T00:33:16.101Z,9.10
2018-09-15T00:33:49.893Z,5.67
2018-09-15T00:34:23.672Z,5.27
2018-09-15T00:34:57.932Z,4.37
2018-09-15T00:35:31.978Z,9.67
2018-09-15T00:36:05.805Z,5.80
2018-09-15T00:36:39.715Z,5.03
2018-09-15T00:37:13.765Z,5.03
2018-09-15T00:37:47.543Z,7.90
2018-09-15T00:38:21.389Z,5.77
2018-09-15T00:38:55.455Z,4.47
2018-09-15T00:39:29.340Z,6.40
2018-09-15T00:40:03.196Z,4.60
2018-09-15T00:40:37.198Z,8.90
2018-09-15T00:41:11.126Z,4.73
2018-09-15T00:41:45.480Z,7.40
2018-09-15T00:42:19.496Z,7.10
2018-09-15T00:42:53.264Z,8.93
2018-09-15T00:43:27.150Z,8.73
2018-09-15T00:44:00.891Z,5.43
2018-09-15T00:44:34.925Z,5.20
2018-09-15T00:45:08.816Z,5.90
2018-09-15T00:45:43.121Z,8.23
2018-09-15T00:46:17.000Z,8.30
2018-09-15T00:46:50.820Z,4.53
2018-09-15T00:47:24.812Z,8.07
2018-09-15T00:47:58.823Z,4.57
2018-09-15T00:48:32.982Z,6.90
2018-09-15T00:49:06.848Z,6.50
2018-09-15T00:49:40.773Z,5.13
2018-09-15T00:50:14.874Z,4.43
2018-09-15T00:50:48.745Z,5.40
2018-09-15T00:51:22.519Z,7.47
2018-09-15T00:51:56.523Z,7.63
2018-09-15T00:52:30.671Z,8.70
2018-09-15T00:53:04.365Z,5.63
2018-09-15T00:53:38.056Z,8.07
2018-09-15T00:54:12.344Z,5.93
2018-09-15T00:54:46.357Z,9.70
2018-09-15T00:55:20.199Z,7.47
2018-09-15T00:55:53.956Z,8.63
2018-09-15T00:56:27.659Z,6.70
2018-09-15T00:57:01.641Z,6.60
2018-09-15T00:57:35.506Z,7.20
2018-09-15T00:58:09.480Z,7.43
2018-09-15T00:58:43.565Z,5.17
2018-09-15T00:59:17.802Z,5.77
2018-09-15T00:59:51.668Z,5.77
2018-09-15T01:00:25.492Z,6.03
2018-09-15T01:00:59.578Z,6.07
2018-09-15T01:01:33.466Z,5.87
2018-09-15T01:02:07.270Z,4.90
2018-09-15T01:02:41.727Z,6.60
2018-09-15T01:03:15.780Z,6.40
2018-09-15T01:03:49.704Z,5.87
2018-09-15T01:04:23.672Z,5.23
2018-09-15T01:04:57.393Z,5.77
2018-09-15T01:05:31.280Z,6.40
2018-09-15T01:06:05.251Z,6.93
2018-09-15T01:06:39.107Z,6.23
2018-09-15T01:07:13.148Z,4.83
2018-09-15T01:07:46.932Z,5.33
2018-09-15T01:08:20.931Z,5.80
2018-09-15T01:08:54.739Z,8.97
2018-09-15T01:09:28.577Z,4.90
2018-09-15T01:10:02.566Z,5.47
2018-09-15T01:10:36.606Z,5.97
2018-09-15T01:11:10.465Z,4.57
2018-09-15T01:11:44.432Z,4.87
2018-09-15T01:12:18.500Z,7.67
2018-09-15T01:12:52.615Z,7.50
2018-09-15T01:13:26.525Z,3.40
2018-09-15T01:14:00.844Z,5.37
2018-09-15T01:14:35.243Z,5.83
2018-09-15T01:15:09.298Z,3.90
2018-09-15T01:15:43.180Z,7.00
2018-09-15T01:16:17.498Z,5.03
2018-09-15T01:16:51.374Z,7.07
2018-09-15T01:17:25.224Z,7.20
2018-09-15T01:17:59.260Z,5.40
2018-09-15T01:18:33.249Z,4.97
2018-09-15T01:19:07.350Z,4.63
2018-09-15T01:19:41.144Z,4.23
2018-09-15T01:20:15.041Z,4.57
2018-09-15T01:20:49.081Z,4.90
2018-09-15T01:21:23.186Z,5.10
2018-09-15T01:21:57.145Z,5.80
2018-09-15T01:22:31.063Z,8.17
2018-09-15T01:23:04.849Z,3.17
2018-09-15T01:23:38.680Z,4.17
2018-09-15T01:24:12.467Z,5.90
2018-09-15T01:24:46.627Z,3.83
2018-09-15T01:25:20.723Z,6.17
2018-09-15T01:25:54.832Z,6.10
2018-09-15T01:26:28.799Z,4.10
2018-09-15T01:27:02.804Z,6.33
2018-09-15T01:27:36.601Z,3.93
2018-09-15T01:28:10.490Z,5.27
2018-09-15T01:28:44.381Z,7.30
2018-09-15T01:29:18.405Z,3.40
2018-09-15T01:29:52.424Z,4.33
2018-09-15T01:30:26.168Z,6.43
2018-09-15T01:31:00.240Z,3.77
2018-09-15T01:31:34.257Z,4.83
2018-09-15T01:32:07.887Z,3.93
2018-09-15T01:32:41.856Z,3.33
2018-09-15T01:33:15.777Z,7.60
2018-09-15T01:33:50.080Z,4.33
2018-09-15T01:34:23.833Z,5.13
2018-09-15T01:34:57.561Z,6.07
2018-09-15T01:35:31.558Z,5.07
2018-09-15T01:36:05.267Z,4.57
2018-09-15T01:36:39.228Z,6.53
2018-09-15T01:37:13.040Z,5.37
2018-09-15T01:37:47.024Z,5.57
2018-09-15T01:38:20.972Z,6.57
2018-09-15T01:38:54.824Z,4.10
2018-09-15T01:39:28.484Z,5.17
2018-09-15T01:40:02.360Z,5.13
2018-09-15T01:40:36.289Z,6.47
2018-09-15T01:41:10.166Z,6.03
2018-09-15T01:41:44.012Z,6.70
2018-09-15T01:42:17.892Z,5.37
2018-09-15T01:42:52.147Z,4.60
2018-09-15T01:43:25.957Z,5.87
2018-09-15T01:43:59.904Z,4.57
2018-09-15T01:44:33.728Z,4.33
2018-09-15T01:45:07.624Z,4.30
2018-09-15T01:45:41.496Z,4.37
2018-09-15T01:46:15.160Z,3.00
2018-09-15T01:46:49.157Z,5.87
2018-09-15T01:47:23.426Z,5.57
2018-09-15T01:47:57.163Z,4.73
2018-09-15T01:48:31.030Z,5.13
2018-09-15T01:49:04.711Z,5.97
2018-09-15T01:49:38.479Z,3.77
2018-09-15T01:50:12.432Z,4.57
2018-09-15T01:50:46.559Z,4.13
2018-09-15T01:51:20.366Z,3.50
2018-09-15T01:51:54.557Z,4.70
2018-09-15T01:52:28.626Z,3.73
2018-09-15T01:53:02.975Z,5.20
2018-09-15T01:53:36.790Z,5.93
2018-09-15T01:54:10.741Z,3.77
2018-09-15T01:54:44.615Z,4.50
2018-09-15T01:55:18.242Z,3.63
2018-09-15T01:55:52.045Z,4.47
2018-09-15T01:56:26.139Z,3.20
2018-09-15T01:56:59.963Z,4.27
2018-09-15T01:57:33.903Z,6.60
2018-09-15T01:58:07.842Z,4.03
2018-09-15T01:58:41.671Z,3.30
2018-09-15T01:59:15.976Z,4.40
2018-09-15T01:59:49.916Z,7.37
2018-09-15T02:00:23.812Z,5.37
2018-09-15T02:00:57.756Z,5.60
2018-09-15T02:01:31.593Z,4.67
2018-09-15T02:02:05.707Z,5.07
2018-09-15T02:02:39.608Z,4.90
2018-09-15T02:03:13.590Z,4.97
2018-09-15T02:03:47.432Z,6.00
2018-09-15T02:04:22.125Z,6.93
2018-09-15T02:04:56.124Z,3.97
2018-09-15T02:05:30.017Z,4.10
2018-09-15T02:06:04.396Z,6.23
2018-09-15T02:06:38.595Z,6.77
2018-09-15T02:07:12.594Z,5.70
2018-09-15T02:07:46.488Z,3.40
2018-09-15T02:08:20.589Z,7.33
2018-09-15T02:08:54.551Z,4.27
2018-09-15T02:09:28.477Z,4.83
2018-09-15T02:10:02.401Z,8.83
2018-09-15T02:10:36.407Z,4.53
2018-09-15T02:11:10.164Z,4.60
2018-09-15T02:11:44.209Z,7.57
2018-09-15T02:12:18.012Z,6.60
2018-09-15T02:12:51.949Z,8.40
2018-09-15T02:13:25.824Z,7.67
2018-09-15T02:13:59.796Z,6.13
2018-09-15T02:14:33.630Z,5.77
2018-09-15T02:15:07.460Z,7.57
2018-09-15T02:15:41.345Z,8.13
2018-09-15T02:16:15.305Z,6.83
2018-09-15T02:16:49.256Z,8.10
2018-09-15T02:17:23.003Z,7.00
2018-09-15T02:17:56.752Z,4.77
2018-09-15T02:18:30.667Z,8.43
2018-09-15T02:19:04.550Z,8.90
2018-09-15T02:19:38.531Z,7.37
2018-09-15T02:20:12.364Z,10.17
2018-09-15T02:20:46.377Z,11.53
2018-09-15T02:21:20.071Z,8.67
2018-09-15T02:21:53.985Z,10.27
2018-09-15T02:22:27.892Z,11.90
2018-09-15T02:23:01.919Z,10.87
2018-09-15T02:23:35.881Z,8.07
2018-09-15T02:24:09.990Z,10.63
2018-09-15T02:24:43.680Z,10.50
2018-09-15T02:25:17.507Z,10.77
2018-09-15T02:25:51.824Z,9.73
2018-09-15T02:26:25.735Z,8.17
2018-09-15T02:26:59.610Z,10.00
2018-09-15T02:27:33.709Z,14.73
2018-09-15T02:28:07.575Z,10.33
2018-09-15T02:28:41.345Z,10.60
2018-09-15T02:29:15.136Z,10.20
2018-09-15T02:29:49.043Z,11.17
2018-09-15T02:30:22.978Z,13.13
2018-09-15T02:30:56.988Z,9.50
2018-09-15T02:31:30.972Z,15.13
2018-09-15T02:32:04.892Z,10.67
2018-09-15T02:32:38.576Z,12.57
2018-09-15T02:33:12.353Z,14.97
2018-09-15T02:33:46.443Z,14.30
2018-09-15T02:34:20.390Z,8.87
2018-09-15T02:34:54.249Z,8.83
2018-09-15T02:35:28.098Z,8.87
2018-09-15T02:36:02.458Z,9.43
2018-09-15T02:36:36.278Z,7.47
2018-09-15T02:37:10.199Z,11.80
2018-09-15T02:37:43.953Z,8.13
2018-09-15T02:38:17.726Z,9.30
2018-09-15T02:38:51.861Z,8.20
2018-09-15T02:39:26.140Z,12.53
2018-09-15T02:40:00.013Z,11.37
2018-09-15T02:40:33.953Z,10.30
2018-09-15T02:41:07.873Z,7.03
2018-09-15T02:41:41.716Z,8.80
2018-09-15T02:42:15.826Z,9.67
2018-09-15T02:42:49.538Z,7.53
2018-09-15T02:43:23.473Z,11.33
2018-09-15T02:43:57.430Z,9.10
2018-09-15T02:44:31.484Z,8.80
2018-09-15T02:45:05.438Z,10.63
2018-09-15T02:45:39.244Z,6.93
2018-09-15T02:46:13.492Z,7.47
2018-09-15T02:46:47.356Z,7.13
2018-09-15T02:47:21.142Z,6.17
2018-09-15T02:47:55.020Z,6.20
2018-09-15T02:48:29.011Z,9.30
2018-09-15T02:49:02.935Z,4.27
2018-09-15T02:49:36.758Z,5.53
2018-09-15T02:50:10.876Z,4.50
2018-09-15T02:50:45.255Z,5.30
2018-09-15T02:51:19.346Z,6.07
2018-09-15T02:51:53.397Z,6.60
2018-09-15T02:52:27.297Z,5.73
2018-09-15T02:53:01.411Z,4.70
2018-09-15T02:53:35.279Z,6.27
2018-09-15T02:54:09.395Z,5.00
2018-09-15T02:54:43.714Z,2.40
2018-09-15T02:55:17.490Z,4.27
2018-09-15T02:55:51.182Z,5.27
2018-09-15T02:56:24.893Z,4.07
2018-09-15T02:56:58.719Z,4.87
2018-09-15T02:57:32.604Z,3.83
2018-09-15T02:58:06.683Z,5.33
2018-09-15T02:58:40.390Z,4.37
2018-09-15T02:59:14.175Z,5.20
2018-09-15T02:59:48.114Z,5.50
2018-09-15T03:00:22.086Z,4.10
2018-09-15T03:00:55.974Z,7.73
2018-09-15T03:01:29.835Z,5.23
2018-09-15T03:02:03.713Z,6.43
2018-09-15T03:02:37.559Z,3.60
2018-09-15T03:03:11.561Z,3.77
2018-09-15T03:03:45.515Z,4.27
2018-09-15T03:04:19.513Z,6.47
2018-09-15T03:04:53.675Z,6.63
2018-09-15T03:05:27.695Z,8.73
2018-09-15T03:06:01.475Z,3.83
2018-09-15T03:06:35.578Z,8.03
2018-09-15T03:07:09.488Z,3.93
2018-09-15T03:07:43.499Z,7.23
2018-09-15T03:08:17.434Z,5.73
2018-09-15T03:08:51.437Z,9.67
2018-09-15T03:09:25.189Z,5.63
2018-09-15T03:09:58.999Z,5.80
2018-09-15T03:10:33.215Z,5.47
2018-09-15T03:11:07.514Z,3.63
2018-09-15T03:11:41.256Z,4.97
2018-09-15T03:12:14.920Z,5.13
2018-09-15T03:12:49.123Z,7.57
2018-09-15T03:13:22.912Z,5.90
2018-09-15T03:13:56.750Z,5.57
2018-09-15T03:14:30.648Z,6.83
2018-09-15T03:15:05.114Z,4.23
2018-09-15T03:15:39.150Z,4.60
2018-09-15T03:16:13.040Z,5.13
2018-09-15T03:16:46.937Z,5.03
2018-09-15T03:17:20.703Z,5.57
2018-09-15T03:17:54.627Z,5.03
2018-09-15T03:18:28.412Z,6.97
2018-09-15T03:19:02.312Z,4.97
2018-09-15T03:19:36.382Z,5.90
2018-09-15T03:20:11.109Z,5.47
2018-09-15T03:20:44.929Z,3.80
2018-09-15T03:21:18.889Z,8.00
2018-09-15T03:21:52.913Z,5.67
2018-09-15T03:22:26.863Z,4.77
2018-09-15T03:23:00.677Z,4.17
2018-09-15T03:23:34.441Z,10.70
2018-09-15T03:24:08.365Z,6.53
2018-09-15T03:24:42.407Z,8.10
2018-09-15T03:25:16.172Z,5.93
2018-09-15T03:25:50.347Z,4.80
2018-09-15T03:26:25.234Z,6.33
2018-09-15T03:26:59.179Z,7.40
2018-09-15T03:27:33.182Z,5.43
2018-09-15T03:28:07.214Z,5.90
2018-09-15T03:28:41.496Z,7.53
2018-09-15T03:29:15.299Z,6.97
2018-09-15T03:29:49.288Z,4.13
2018-09-15T03:30:23.053Z,5.20
2018-09-15T03:30:57.209Z,6.83
2018-09-15T03:31:31.167Z,7.97
2018-09-15T03:32:05.286Z,6.40
2018-09-15T03:32:39.181Z,6.20
2018-09-15T03:33:13.044Z,5.77
2018-09-15T03:33:46.828Z,4.80
2018-09-15T03:34:20.565Z,8.17
2018-09-15T03:34:54.930Z,8.63
2018-09-15T03:35:28.733Z,7.07
2018-09-15T03:36:02.547Z,7.13
2018-09-15T03:36:36.380Z,10.17
2018-09-15T03:37:10.545Z,8.77
2018-09-15T03:37:44.919Z,7.13
2018-09-15T03:38:18.779Z,8.40
2018-09-15T03:38:52.737Z,5.13
2018-09-15T03:39:26.629Z,7.83
2018-09-15T03:40:00.765Z,5.53
2018-09-15T03:40:34.641Z,7.37
2018-09-15T03:41:08.364Z,8.30
2018-09-15T03:41:42.493Z,5.90
2018-09-15T03:42:16.444Z,9.30
2018-09-15T03:42:50.589Z,6.83
2018-09-15T03:43:24.337Z,5.67
2018-09-15T03:43:58.444Z,8.10
2018-09-15T03:44:32.241Z,5.30
2018-09-15T03:45:06.083Z,6.37
2018-09-15T03:45:40.015Z,6.17
2018-09-15T03:46:14.171Z,5.13
2018-09-15T03:46:48.024Z,10.20
2018-09-15T03:47:21.842Z,6.77
2018-09-15T03:47:55.787Z,6.73
2018-09-15T03:48:29.603Z,7.37
2018-09-15T03:49:03.630Z,6.33
2018-09-15T03:49:37.494Z,5.27
2018-09-15T03:50:11.836Z,6.20
2018-09-15T03:50:46.456Z,6.93
2018-09-15T03:51:20.213Z,9.83
2018-09-15T03:51:54.129Z,8.70
2018-09-15T03:52:28.147Z,9.40
2018-09-15T03:53:01.966Z,4.10
2018-09-15T03:53:35.823Z,4.83
2018-09-15T03:54:14.475Z,7.00
2018-09-15T03:54:48.649Z,5.47
2018-09-15T03:55:23.173Z,6.43
2018-09-15T03:55:56.862Z,5.93
2018-09-15T03:56:30.621Z,6.67
2018-09-15T03:57:04.444Z,9.00
2018-09-15T03:57:38.045Z,6.53
2018-09-15T03:58:12.151Z,6.97
2018-09-15T03:58:46.343Z,9.40
2018-09-15T03:59:20.412Z,7.57
2018-09-15T03:59:54.475Z,5.80
2018-09-15T04:00:28.288Z,6.53
2018-09-15T04:01:02.174Z,11.80
2018-09-15T04:01:36.064Z,7.67
2018-09-15T04:02:09.921Z,7.33
2018-09-15T04:02:44.003Z,9.03
2018-09-15T04:03:17.968Z,5.87
2018-09-15T04:03:51.964Z,7.93
2018-09-15T04:04:25.873Z,5.80
2018-09-15T04:04:59.819Z,7.83
2018-09-15T04:05:33.745Z,8.20
2018-09-15T04:06:07.544Z,9.47
2018-09-15T04:06:41.335Z,8.47
2018-09-15T04:07:15.755Z,9.03
2018-09-15T04:07:49.596Z,14.63
2018-09-15T04:08:23.561Z,7.17
2018-09-15T04:08:57.558Z,6.20
2018-09-15T04:09:31.337Z,6.30
2018-09-15T04:10:05.275Z,8.37
2018-09-15T04:10:39.319Z,11.00
2018-09-15T04:11:13.068Z,7.97
2018-09-15T04:11:47.316Z,8.67
2018-09-15T04:12:21.081Z,6.50
2018-09-15T04:12:55.329Z,9.77
2018-09-15T04:13:29.202Z,7.57
2018-09-15T04:14:03.326Z,9.80
2018-09-15T04:14:37.192Z,10.00
2018-09-15T04:15:10.979Z,9.40
2018-09-15T04:15:45.114Z,7.33
2018-09-15T04:16:18.839Z,11.27
2018-09-15T04:16:52.880Z,9.40
2018-09-15T04:17:26.799Z,8.10
2018-09-15T04:18:00.595Z,9.70
2018-09-15T04:18:34.645Z,10.50
2018-09-15T04:19:08.479Z,13.20
2018-09-15T04:19:42.480Z,10.40
2018-09-15T04:20:17.224Z,10.97
2018-09-15T04:20:51.260Z,12.37
2018-09-15T04:21:25.070Z,11.67
2018-09-15T04:21:59.107Z,9.60
2018-09-15T04:22:32.907Z,8.13
2018-09-15T04:23:06.931Z,8.07
2018-09-15T04:23:40.687Z,12.30
2018-09-15T04:24:14.891Z,10.50
2018-09-15T04:24:49.350Z,13.20
2018-09-15T04:25:23.437Z,11.93
2018-09-15T04:25:57.316Z,8.53
2018-09-15T04:26:31.075Z,7.97
2018-09-15T04:27:05.112Z,9.67
2018-09-15T04:27:38.788Z,10.57
2018-09-15T04:28:12.715Z,7.10
2018-09-15T04:28:47.379Z,9.77
2018-09-15T04:29:21.344Z,9.37
2018-09-15T04:29:55.193Z,11.27
2018-09-15T04:30:29.009Z,12.50
2018-09-15T04:31:02.845Z,9.60
2018-09-15T04:31:36.898Z,7.83
2018-09-15T04:32:10.822Z,12.13
2018-09-15T04:32:44.608Z,6.53
2018-09-15T04:33:18.779Z,6.20
2018-09-15T04:33:52.765Z,6.53
2018-09-15T04:34:26.682Z,9.30
2018-09-15T04:35:00.682Z,7.60
2018-09-15T04:35:34.639Z,6.60
2018-09-15T04:36:08.435Z,11.77
2018-09-15T04:36:42.223Z,10.33
2018-09-15T04:37:16.596Z,7.33
2018-09-15T04:37:50.867Z,6.77
2018-09-15T04:38:24.741Z,7.63
2018-09-15T04:38:58.546Z,7.80
2018-09-15T04:39:32.397Z,10.93
2018-09-15T04:40:07.114Z,6.17
2018-09-15T04:40:41.106Z,9.90
2018-09-15T04:41:15.476Z,8.10
2018-09-15T04:41:49.463Z,14.00
2018-09-15T04:42:23.344Z,8.67
2018-09-15T04:42:57.159Z,12.90
2018-09-15T04:43:31.239Z,8.97
2018-09-15T04:44:04.928Z,8.80
2018-09-15T04:44:38.857Z,10.57
2018-09-15T04:45:12.617Z,8.97
2018-09-15T04:45:46.544Z,12.13
2018-09-15T04:46:20.752Z,8.67
2018-09-15T04:46:55.028Z,8.80
2018-09-15T04:47:29.005Z,8.60
2018-09-15T04:48:03.014Z,8.73
2018-09-15T04:48:36.695Z,7.93
2018-09-15T04:49:10.603Z,13.37
2018-09-15T04:49:44.633Z,9.53
2018-09-15T04:50:18.594Z,8.00
2018-09-15T04:50:52.534Z,10.27
2018-09-15T04:51:26.465Z,9.40
2018-09-15T04:52:00.289Z,11.73
2018-09-15T04:52:34.185Z,13.20
2018-09-15T04:53:08.053Z,8.43
2018-09-15T04:53:41.904Z,9.40
2018-09-15T04:54:15.861Z,6.60
2018-09-15T04:54:49.666Z,15.30
2018-09-15T04:55:23.500Z,11.00
2018-09-15T04:55:57.565Z,8.67
2018-09-15T04:56:31.506Z,9.10
2018-09-15T04:57:05.627Z,10.70
2018-09-15T04:57:39.420Z,12.67
2018-09-15T04:58:13.066Z,14.67
2018-09-15T04:58:47.061Z,11.10
2018-09-15T04:59:20.980Z,6.43
2018-09-15T04:59:55.011Z,11.33
2018-09-15T05:00:28.986Z,12.67
2018-09-15T05:01:03.107Z,13.80
2018-09-15T05:01:37.152Z,11.60
2018-09-15T05:02:10.965Z,7.93
2018-09-15T05:02:44.968Z,11.57
2018-09-15T05:03:19.167Z,13.10
2018-09-15T05:03:53.191Z,8.13
2018-09-15T05:04:27.075Z,9.40
2018-09-15T05:05:00.717Z,10.97
2018-09-15T05:05:34.490Z,12.43
2018-09-15T05:06:08.213Z,12.63
2018-09-15T05:06:41.981Z,11.37
2018-09-15T05:07:16.056Z,15.13
2018-09-15T05:07:49.636Z,10.17
2018-09-15T05:08:23.628Z,12.33
2018-09-15T05:08:57.626Z,12.47
2018-09-15T05:09:31.487Z,10.80
2018-09-15T05:10:05.630Z,14.47
2018-09-15T05:10:39.804Z,9.37
2018-09-15T05:11:13.796Z,12.67
2018-09-15T05:11:47.776Z,11.50
2018-09-15T05:12:21.792Z,15.73
2018-09-15T05:12:56.426Z,11.87
2018-09-15T05:13:30.517Z,11.03
2018-09-15T05:14:04.302Z,9.57
2018-09-15T05:14:38.295Z,10.90
2018-09-15T05:15:12.038Z,9.57
2018-09-15T05:15:45.944Z,12.37
2018-09-15T05:16:19.787Z,13.67
2018-09-15T05:16:53.742Z,9.27
2018-09-15T05:17:28.019Z,9.23
2018-09-15T05:18:01.729Z,7.90
2018-09-15T05:18:35.657Z,15.60
2018-09-15T05:19:09.387Z,12.90
2018-09-15T05:19:43.204Z,12.30
2018-09-15T05:20:17.425Z,10.97
2018-09-15T05:20:51.305Z,9.63
2018-09-15T05:21:25.220Z,12.90
2018-09-15T05:21:59.252Z,9.03
2018-09-15T05:22:32.880Z,10.10
2018-09-15T05:23:07.126Z,8.40
2018-09-15T05:23:41.140Z,13.83
2018-09-15T05:24:14.914Z,10.83
2018-09-15T05:24:48.809Z,10.60
2018-09-15T05:25:22.701Z,14.00
2018-09-15T05:25:56.802Z,10.03
2018-09-15T05:26:30.720Z,8.87
2018-09-15T05:27:04.521Z,7.93
2018-09-15T05:27:38.305Z,11.23
2018-09-15T05:28:12.307Z,10.50
2018-09-15T05:28:46.124Z,13.30
2018-09-15T05:29:20.511Z,15.03
2018-09-15T05:29:54.436Z,14.10
2018-09-15T05:30:28.557Z,12.97
2018-09-15T05:31:02.446Z,12.23
2018-09-15T05:31:36.486Z,16.43
2018-09-15T05:32:10.375Z,11.27
2018-09-15T05:32:44.265Z,12.67
2018-09-15T05:33:18.090Z,15.00
2018-09-15T05:33:52.941Z,11.93
2018-09-15T05:34:26.819Z,19.27
2018-09-15T05:35:00.861Z,10.70
2018-09-15T05:35:34.829Z,15.30
2018-09-15T05:36:08.772Z,10.70
2018-09-15T05:36:42.515Z,9.50
2018-09-15T05:37:16.427Z,13.80
2018-09-15T05:37:50.456Z,14.90
2018-09-15T05:38:24.454Z,12.70
2018-09-15T05:38:59.009Z,8.77
2018-09-15T05:39:33.008Z,13.33
2018-09-15T05:40:07.033Z,14.53
2018-09-15T05:40:40.968Z,15.17
2018-09-15T05:41:14.869Z,10.73
2018-09-15T05:41:48.812Z,10.43
2018-09-15T05:42:22.941Z,10.97
2018-09-15T05:42:57.564Z,10.77
2018-09-15T05:43:31.566Z,11.60
2018-09-15T05:44:05.545Z,11.53
2018-09-15T05:44:39.398Z,10.23
2018-09-15T05:45:13.262Z,7.47
2018-09-15T05:45:47.199Z,7.50
2018-09-15T05:46:21.204Z,11.03
2018-09-15T05:46:55.217Z,10.80
2018-09-15T05:47:30.102Z,11.27
2018-09-15T05:48:04.397Z,8.70
2018-09-15T05:48:38.319Z,10.30
2018-09-15T05:49:12.194Z,10.43
2018-09-15T05:49:46.052Z,7.30
2018-09-15T05:50:19.909Z,11.00
2018-09-15T05:50:53.946Z,8.47
2018-09-15T05:51:27.780Z,9.83
2018-09-15T05:52:01.769Z,7.90
2018-09-15T05:52:35.549Z,13.47
2018-09-15T05:53:09.688Z,6.67
2018-09-15T05:53:43.484Z,4.90
2018-09-15T05:54:17.295Z,9.90
2018-09-15T05:54:51.265Z,11.03
2018-09-15T05:55:25.044Z,13.03
2018-09-15T05:55:59.107Z,5.07
2018-09-15T05:56:33.253Z,7.73
2018-09-15T05:57:07.108Z,5.70
2018-09-15T05:57:41.209Z,10.83
2018-09-15T05:58:15.308Z,8.83
2018-09-15T05:58:49.389Z,6.47
2018-09-15T05:59:23.444Z,7.03
2018-09-15T05:59:57.269Z,7.93
2018-09-15T06:00:31.220Z,9.23
2018-09-15T06:01:06.010Z,7.23
2018-09-15T06:01:39.988Z,10.27
2018-09-15T06:02:14.774Z,9.73
2018-09-15T06:02:48.861Z,8.73
2018-09-15T06:03:22.916Z,11.03
2018-09-15T06:03:56.950Z,10.57
2018-09-15T06:04:31.120Z,11.63
2018-09-15T06:05:04.980Z,5.90
2018-09-15T06:05:38.709Z,10.13
2018-09-15T06:06:12.545Z,8.50
2018-09-15T06:06:46.281Z,7.93
2018-09-15T06:07:20.105Z,11.53
2018-09-15T06:07:54.195Z,10.23
2018-09-15T06:08:28.299Z,10.50
2018-09-15T06:09:02.516Z,9.40
2018-09-15T06:09:36.345Z,8.43
2018-09-15T06:10:10.539Z,11.70
2018-09-15T06:10:44.728Z,7.97
2018-09-15T06:11:18.536Z,9.20
2018-09-15T06:11:52.613Z,21.00
2018-09-15T06:12:26.484Z,8.83
2018-09-15T06:13:00.287Z,16.43
2018-09-15T06:13:34.313Z,15.23
2018-09-15T06:14:08.186Z,11.60
2018-09-15T06:14:42.583Z,11.87
2018-09-15T06:15:16.477Z,8.57
2018-09-15T06:15:50.589Z,11.83
2018-09-15T06:16:24.993Z,8.27
2018-09-15T06:16:58.652Z,10.53
2018-09-15T06:17:32.804Z,12.57
2018-09-15T06:18:06.714Z,11.03
2018-09-15T06:18:40.571Z,11.30
2018-09-15T06:19:14.770Z,12.30
2018-09-15T06:19:48.454Z,12.40
2018-09-15T06:20:22.315Z,9.30
2018-09-15T06:20:56.260Z,11.10
2018-09-15T06:21:30.030Z,13.17
2018-09-15T06:22:04.055Z,10.30
2018-09-15T06:22:38.454Z,10.37
2018-09-15T06:23:12.298Z,7.97
2018-09-15T06:23:46.750Z,10.87
2018-09-15T06:24:20.497Z,11.50
2018-09-15T06:24:54.502Z,7.77
2018-09-15T06:25:28.749Z,7.60
2018-09-15T06:26:02.597Z,12.60
2018-09-15T06:26:37.038Z,12.70
2018-09-15T06:27:11.187Z,9.63
2018-09-15T06:27:45.332Z,11.67
2018-09-15T06:28:19.220Z,11.87
2018-09-15T06:28:53.179Z,17.83
2018-09-15T06:29:26.897Z,12.17
2018-09-15T06:30:01.031Z,10.30
2018-09-15T06:30:35.324Z,10.67
2018-09-15T06:31:09.332Z,9.77
2018-09-15T06:31:43.515Z,9.43
2018-09-15T06:32:17.412Z,13.70
2018-09-15T06:32:51.565Z,12.07
2018-09-15T06:33:26.024Z,12.43
2018-09-15T06:33:59.855Z,14.07
2018-09-15T06:34:33.727Z,8.93
2018-09-15T06:35:07.535Z,12.20
2018-09-15T06:35:41.909Z,11.33
2018-09-15T06:36:15.873Z,14.00
2018-09-15T06:36:50.141Z,12.60
2018-09-15T06:37:23.947Z,10.77
2018-09-15T06:37:57.873Z,12.63
2018-09-15T06:38:31.787Z,10.37
2018-09-15T06:39:08.559Z,12.23
2018-09-15T06:39:42.872Z,14.50
2018-09-15T06:40:16.767Z,10.30
2018-09-15T06:40:50.827Z,10.20
2018-09-15T06:41:24.731Z,14.03
2018-09-15T06:41:58.570Z,12.87
2018-09-15T06:42:32.443Z,11.67
2018-09-15T06:43:06.301Z,10.93
2018-09-15T06:43:40.440Z,9.77
2018-09-15T06:44:14.578Z,12.53
2018-09-15T06:44:48.556Z,11.87
2018-09-15T06:45:22.471Z,11.87
2018-09-15T06:45:56.696Z,12.70
2018-09-15T06:46:30.637Z,12.00
2018-09-15T06:47:04.544Z,11.00
2018-09-15T06:47:38.482Z,10.00
2018-09-15T06:48:12.948Z,11.63
2018-09-15T06:48:46.750Z,9.93
2018-09-15T06:49:20.860Z,13.03
2018-09-15T06:49:54.671Z,10.43
2018-09-15T06:50:28.900Z,11.30
2018-09-15T06:51:02.650Z,11.67
2018-09-15T06:51:36.461Z,15.57
2018-09-15T06:52:10.448Z,11.47
2018-09-15T06:52:44.625Z,12.03
2018-09-15T06:53:18.503Z,14.97
2018-09-15T06:53:52.602Z,13.87
2018-09-15T06:54:26.662Z,14.30
2018-09-15T06:55:00.856Z,11.70
2018-09-15T06:55:34.987Z,12.87
2018-09-15T06:56:09.026Z,15.83
2018-09-15T06:56:43.176Z,12.57
2018-09-15T06:57:17.111Z,17.50
2018-09-15T06:57:50.837Z,13.53
2018-09-15T06:58:24.776Z,8.07
2018-09-15T06:58:58.875Z,9.63
2018-09-15T06:59:32.721Z,10.40
2018-09-15T07:00:06.652Z,10.17
2018-09-15T07:00:40.806Z,11.60
2018-09-15T07:01:14.749Z,13.90
2018-09-15T07:01:48.740Z,10.43
2018-09-15T07:02:22.645Z,10.03
2018-09-15T07:02:56.497Z,12.60
2018-09-15T07:03:30.278Z,10.33
2018-09-15T07:04:04.291Z,14.57
2018-09-15T07:04:38.008Z,12.10
2018-09-15T07:05:11.989Z,16.90
2018-09-15T07:05:45.821Z,13.83
2018-09-15T07:06:19.687Z,11.83
2018-09-15T07:06:53.600Z,14.77
2018-09-15T07:07:27.748Z,10.77
2018-09-15T07:08:01.859Z,11.73
2018-09-15T07:08:36.001Z,11.57
2018-09-15T07:09:13.045Z,10.23
2018-09-15T07:09:47.018Z,16.97
2018-09-15T07:10:21.060Z,29.60
2018-09-15T07:10:54.786Z,19.40
2018-09-15T07:11:28.565Z,18.70
2018-09-15T07:12:03.124Z,14.83
2018-09-15T07:12:37.440Z,14.97
2018-09-15T07:13:11.455Z,14.33
2018-09-15T07:13:45.526Z,11.10
2018-09-15T07:14:19.758Z,13.20
2018-09-15T07:14:53.752Z,11.93
2018-09-15T07:15:27.633Z,12.20
2018-09-15T07:16:01.624Z,14.97
2018-09-15T07:16:35.662Z,11.63
2018-09-15T07:17:09.439Z,8.70
2018-09-15T07:17:43.508Z,9.17
2018-09-15T07:18:17.400Z,16.33
2018-09-15T07:18:51.332Z,12.43
2018-09-15T07:19:25.776Z,12.47
2018-09-15T07:19:59.751Z,8.67
2018-09-15T07:20:33.758Z,13.63
2018-09-15T07:21:08.276Z,9.97
2018-09-15T07:21:42.256Z,10.77
2018-09-15T07:22:16.112Z,12.13
2018-09-15T07:22:49.937Z,11.30
2018-09-15T07:23:24.250Z,10.73
2018-09-15T07:23:58.596Z,11.73
2018-09-15T07:24:32.499Z,10.23
2018-09-15T07:25:06.727Z,9.80
2018-09-15T07:25:40.712Z,10.67
2018-09-15T07:26:14.926Z,7.80
2018-09-15T07:26:48.890Z,8.07
2018-09-15T07:27:22.928Z,11.43